Terminal Aerodrome Forecast
Issued by NWS Duluth, MN

Home | Current Version | Previous Version | Text Only | Print | Product List | Glossary On
Versions: 1 2 3 4 5 6 7 8 9 10 11 12 13 14
000
FTUS43 KDLH 251700
TAFINL
TAF
KINL 251738Z 2518/2618 VRB05KT P6SM BKN100
      TEMPO 2518/2522 5SM -RA OVC040
     FM252200 14007KT P6SM VCSH OVC040
      TEMPO 2522/2602 5SM -RA BR OVC020
     FM260200 VRB05KT 3SM BR OVC030
     FM261400 23006KT P6SM OVC040=

USA.gov is the U.S. government's official web portal to all federal, state and local government web resources and services.